Time;durP1;ratioP1;P1;durP2;ratioP2;P2;SDS_P1;SDS_P2;PMS_P1;PMS_P2;Temp;Humidity;BMP_temperature;BMP_pressure;BME280_temperature;BME280_humidity;BME280_pressure;Samples;Min_cycle;Max_cycle;Signal;HPM_P1;HPM_P2
2023/04/09 00:01:15;;;;;;;1.50;1.10;;;8.60;98.20;;;;;;4988619;28;20623;-75
2023/04/09 00:03:42;;;;;;;1.50;1.20;;;8.60;98.20;;;;;;4993216;28;20465;-75
2023/04/09 00:06:11;;;;;;;1.60;1.30;;;8.50;98.20;;;;;;4990704;28;20487;-75
2023/04/09 00:08:38;;;;;;;1.57;1.20;;;8.50;98.20;;;;;;4998643;28;20498;-75
2023/04/09 00:11:05;;;;;;;1.53;1.20;;;8.40;98.20;;;;;;4986000;28;21961;-75
2023/04/09 00:13:32;;;;;;;1.67;1.57;;;8.30;98.20;;;;;;4989687;28;20514;-75
2023/04/09 00:15:59;;;;;;;2.37;2.17;;;8.30;98.20;;;;;;4990654;28;20465;-75
2023/04/09 00:18:25;;;;;;;1.50;1.20;;;8.20;98.20;;;;;;4994471;28;20981;-75
2023/04/09 00:20:52;;;;;;;1.53;1.20;;;8.20;98.20;;;;;;4989246;28;20463;-75
2023/04/09 00:23:20;;;;;;;1.50;1.17;;;8.10;98.20;;;;;;4999402;28;21018;-75
2023/04/09 00:25:47;;;;;;;1.57;1.20;;;8.00;98.20;;;;;;4991379;28;20579;-74
2023/04/09 00:28:14;;;;;;;1.53;1.20;;;8.00;98.20;;;;;;4999281;28;20464;-75
2023/04/09 00:30:41;;;;;;;1.50;1.10;;;8.00;98.20;;;;;;5000643;28;20470;-75
2023/04/09 00:33:08;;;;;;;1.50;1.20;;;7.90;98.20;;;;;;4988122;28;20583;-75
2023/04/09 00:35:35;;;;;;;1.50;1.20;;;7.90;98.20;;;;;;5000114;28;20464;-75
2023/04/09 00:38:01;;;;;;;1.57;1.20;;;7.90;98.20;;;;;;4984770;28;21017;-75
2023/04/09 00:40:30;;;;;;;1.53;1.10;;;7.90;98.20;;;;;;5004172;28;20467;-74
2023/04/09 00:42:57;;;;;;;1.60;1.27;;;7.80;98.20;;;;;;4976779;28;20489;-75
2023/04/09 00:45:24;;;;;;;1.57;1.20;;;7.80;98.20;;;;;;5000843;28;20469;-75
2023/04/09 00:47:51;;;;;;;1.60;1.40;;;7.80;98.20;;;;;;4986796;28;20499;-75
2023/04/09 00:50:17;;;;;;;1.50;1.10;;;7.80;98.20;;;;;;5001649;28;20492;-75
2023/04/09 00:52:45;;;;;;;1.50;1.20;;;7.70;98.20;;;;;;4985449;28;21039;-75
2023/04/09 00:55:13;;;;;;;1.60;1.30;;;7.70;98.20;;;;;;4999984;28;20460;-75
2023/04/09 00:57:41;;;;;;;1.50;1.20;;;7.70;98.20;;;;;;4987952;28;20653;-75
2023/04/09 01:00:10;;;;;;;1.60;1.30;;;7.70;98.20;;;;;;4994604;28;20465;-75
2023/04/09 01:02:37;;;;;;;1.50;1.20;;;7.60;98.20;;;;;;4982889;28;20480;-74
2023/04/09 01:05:04;;;;;;;1.50;1.20;;;7.60;98.20;;;;;;4996727;28;20492;-75
2023/04/09 01:07:40;;;;;;;1.50;1.20;;;7.60;98.20;;;;;;4988331;28;20979;-75
2023/04/09 01:10:17;;;;;;;1.90;1.60;;;7.60;98.20;;;;;;5004120;28;20485;-76
2023/04/09 01:12:54;;;;;;;1.60;1.40;;;7.50;98.20;;;;;;4981964;28;20488;-74
2023/04/09 01:15:25;;;;;;;1.60;1.50;;;7.50;98.20;;;;;;5003720;28;20508;-75
2023/04/09 01:17:59;;;;;;;1.50;1.20;;;7.40;98.20;;;;;;4989523;28;20483;-75
2023/04/09 01:20:32;;;;;;;1.60;1.40;;;7.40;98.20;;;;;;5007225;28;20461;-77
2023/04/09 01:23:07;;;;;;;1.80;1.70;;;7.30;98.20;;;;;;4998370;28;20907;-76
2023/04/09 01:25:45;;;;;;;1.97;1.40;;;7.30;98.20;;;;;;5001937;28;20859;-75
2023/04/09 01:28:18;;;;;;;1.60;1.30;;;7.30;98.20;;;;;;4978614;28;20494;-76
2023/04/09 01:30:49;;;;;;;1.60;1.20;;;7.30;98.20;;;;;;4998307;28;20546;-76
2023/04/09 01:33:18;;;;;;;1.50;1.23;;;7.20;98.20;;;;;;4997682;28;20936;-76
2023/04/09 01:35:47;;;;;;;1.60;1.30;;;7.20;98.20;;;;;;5005804;28;20519;-75
2023/04/09 01:38:16;;;;;;;1.60;1.50;;;7.20;98.20;;;;;;4976587;28;20472;-76
2023/04/09 01:40:46;;;;;;;3.10;2.90;;;7.20;98.20;;;;;;5004658;28;20467;-76
2023/04/09 01:43:14;;;;;;;1.60;1.20;;;7.20;98.20;;;;;;4984629;28;21071;-74
2023/04/09 01:45:44;;;;;;;6.20;3.30;;;7.20;98.20;;;;;;5008005;28;20504;-77
2023/04/09 01:48:11;;;;;;;1.57;1.30;;;7.20;98.20;;;;;;4971044;28;20475;-77
2023/04/09 01:50:38;;;;;;;2.63;2.43;;;7.20;98.20;;;;;;5011106;28;20617;-76
2023/04/09 01:53:05;;;;;;;1.60;1.27;;;7.20;98.20;;;;;;4985349;28;20488;-75
2023/04/09 01:55:32;;;;;;;1.50;1.20;;;7.20;98.20;;;;;;5004434;28;20963;-76
2023/04/09 01:57:59;;;;;;;1.60;1.40;;;7.20;98.20;;;;;;4992073;28;20568;-76
2023/04/09 02:00:30;;;;;;;1.60;1.40;;;7.20;98.20;;;;;;5000206;28;20576;-76
2023/04/09 02:03:05;;;;;;;1.60;1.27;;;7.10;98.20;;;;;;4981945;28;20543;-75
2023/04/09 02:05:36;;;;;;;1.50;1.23;;;7.10;98.20;;;;;;5004542;28;20969;-75
2023/04/09 02:08:05;;;;;;;1.60;1.30;;;7.10;98.20;;;;;;4990840;28;20480;-81
2023/04/09 02:10:36;;;;;;;1.60;1.20;;;7.10;98.20;;;;;;5003936;28;21045;-76
2023/04/09 02:13:05;;;;;;;1.57;1.30;;;7.10;98.20;;;;;;4980894;28;20535;-79
2023/04/09 02:15:34;;;;;;;1.60;1.40;;;7.10;98.20;;;;;;5004308;28;20464;-77
2023/04/09 02:18:02;;;;;;;1.50;1.20;;;7.10;98.20;;;;;;4992117;28;20487;-75
2023/04/09 02:20:29;;;;;;;1.60;1.50;;;7.10;98.20;;;;;;5002536;28;20847;-76
2023/04/09 02:22:56;;;;;;;1.60;1.30;;;7.10;98.20;;;;;;4986560;28;20485;-77
2023/04/09 02:25:23;;;;;;;1.53;1.20;;;7.10;98.20;;;;;;5002589;28;20465;-79
2023/04/09 02:27:50;;;;;;;1.60;1.50;;;7.10;98.20;;;;;;4992797;28;20548;-77
2023/04/09 02:30:17;;;;;;;1.57;1.20;;;7.10;98.20;;;;;;5007312;28;20575;-78
2023/04/09 02:32:43;;;;;;;1.60;1.37;;;7.10;98.20;;;;;;4984347;28;20933;-79
2023/04/09 02:35:12;;;;;;;1.60;1.33;;;7.10;98.20;;;;;;5001446;28;20469;-76
2023/04/09 02:37:38;;;;;;;1.60;1.33;;;7.10;98.20;;;;;;4993760;28;21053;-76
2023/04/09 02:40:06;;;;;;;1.60;1.30;;;7.10;98.20;;;;;;5001230;28;20453;-78
2023/04/09 02:42:33;;;;;;;1.50;1.20;;;7.00;98.20;;;;;;4985802;28;20509;-78
2023/04/09 02:45:00;;;;;;;1.57;1.23;;;7.00;98.20;;;;;;5003439;28;20457;-78
2023/04/09 02:47:27;;;;;;;1.70;1.57;;;6.90;98.20;;;;;;4997209;28;20508;-79
2023/04/09 02:49:53;;;;;;;1.50;1.20;;;6.90;98.20;;;;;;5003544;28;20814;-82
2023/04/09 02:52:23;;;;;;;1.60;1.30;;;6.90;98.20;;;;;;4990533;28;20484;-77
2023/04/09 02:54:50;;;;;;;1.60;1.30;;;6.90;98.20;;;;;;5005963;28;20952;-79
2023/04/09 02:57:16;;;;;;;1.57;1.20;;;6.80;98.20;;;;;;4996722;28;20508;-77
2023/04/09 02:59:44;;;;;;;1.53;1.30;;;6.80;98.20;;;;;;5008550;28;20457;-76
2023/04/09 03:02:11;;;;;;;1.60;1.40;;;6.80;98.20;;;;;;4990781;28;20492;-80
2023/04/09 03:04:38;;;;;;;1.60;1.40;;;6.80;98.20;;;;;;4998202;28;20459;-80
2023/04/09 03:07:05;;;;;;;1.60;1.30;;;6.70;98.20;;;;;;4992994;28;20487;-76
2023/04/09 03:09:33;;;;;;;1.50;1.20;;;6.70;98.20;;;;;;5006091;28;20490;-75
2023/04/09 03:12:00;;;;;;;1.60;1.30;;;6.70;98.20;;;;;;4981914;28;20493;-75
2023/04/09 03:14:27;;;;;;;1.90;1.70;;;6.60;98.20;;;;;;5000262;28;20507;-75
2023/04/09 03:16:54;;;;;;;1.60;1.30;;;6.60;98.20;;;;;;4990798;28;20483;-76
2023/04/09 03:19:21;;;;;;;12.20;9.97;;;6.50;98.20;;;;;;5004866;28;20519;-75
2023/04/09 03:21:49;;;;;;;1.57;1.30;;;6.50;98.20;;;;;;4988224;28;20484;-75
2023/04/09 03:24:16;;;;;;;2.27;2.07;;;6.50;98.20;;;;;;4997459;28;20465;-75
2023/04/09 03:26:44;;;;;;;1.60;1.33;;;6.50;98.20;;;;;;4985382;28;20522;-75
2023/04/09 03:29:11;;;;;;;1.57;1.30;;;6.40;98.20;;;;;;4998465;28;20461;-75
2023/04/09 03:31:38;;;;;;;1.57;1.30;;;6.40;98.20;;;;;;4990941;28;20814;-75
2023/04/09 03:34:05;;;;;;;1.60;1.30;;;6.40;98.20;;;;;;4998179;28;20464;-75
2023/04/09 03:36:32;;;;;;;1.57;1.30;;;6.40;98.20;;;;;;4988633;28;20479;-75
2023/04/09 03:38:59;;;;;;;1.60;1.30;;;6.40;98.20;;;;;;4997296;28;20457;-76
2023/04/09 03:41:26;;;;;;;1.53;1.20;;;6.30;98.20;;;;;;4992052;28;20957;-75
2023/04/09 03:43:54;;;;;;;1.53;1.20;;;6.30;98.20;;;;;;5006228;28;20456;-76
2023/04/09 03:46:21;;;;;;;1.53;1.30;;;6.20;98.20;;;;;;4986229;28;20481;-75
2023/04/09 03:48:48;;;;;;;1.60;1.30;;;6.20;98.20;;;;;;4997923;28;20472;-75
2023/04/09 03:51:15;;;;;;;1.53;1.23;;;6.20;98.20;;;;;;4992869;28;20487;-75
2023/04/09 03:53:43;;;;;;;1.57;1.30;;;6.10;98.20;;;;;;5006107;28;20487;-75
2023/04/09 03:56:10;;;;;;;1.60;1.50;;;6.10;98.20;;;;;;4995118;28;20493;-75
2023/04/09 03:58:37;;;;;;;1.60;1.30;;;6.10;98.20;;;;;;4987461;28;20482;-76
2023/04/09 04:01:05;;;;;;;1.60;1.30;;;6.00;98.20;;;;;;4982500;28;20554;-75
2023/04/09 04:03:32;;;;;;;2.60;2.40;;;6.00;98.20;;;;;;4998133;28;20460;-75
2023/04/09 04:06:02;;;;;;;1.60;1.50;;;6.00;98.20;;;;;;4986282;28;20469;-75
2023/04/09 04:08:28;;;;;;;1.60;1.50;;;6.00;98.20;;;;;;4995645;28;20484;-75
2023/04/09 04:10:55;;;;;;;1.60;1.40;;;6.00;98.20;;;;;;4988547;28;20491;-76
2023/04/09 04:13:22;;;;;;;1.60;1.43;;;6.00;98.20;;;;;;4986575;28;20461;-75
2023/04/09 04:15:49;;;;;;;1.57;1.27;;;6.00;98.20;;;;;;4990314;28;21022;-75
2023/04/09 04:18:17;;;;;;;1.60;1.50;;;5.90;98.20;;;;;;4996319;28;20472;-77
2023/04/09 04:20:44;;;;;;;1.60;1.40;;;5.90;98.20;;;;;;4999674;28;20886;-79
2023/04/09 04:23:11;;;;;;;1.53;1.30;;;5.90;98.20;;;;;;4984424;28;20476;-76
2023/04/09 04:25:41;;;;;;;1.60;1.50;;;5.90;98.20;;;;;;5002936;28;20456;-78
2023/04/09 04:28:08;;;;;;;1.60;1.40;;;5.90;98.20;;;;;;4992289;28;20572;-75
2023/04/09 04:30:35;;;;;;;1.60;1.47;;;5.90;98.20;;;;;;5004638;28;20495;-75
2023/04/09 04:33:02;;;;;;;1.60;1.33;;;5.90;98.20;;;;;;4986031;28;20522;-76
2023/04/09 04:35:30;;;;;;;1.60;1.40;;;5.90;98.20;;;;;;4994906;28;20523;-76
2023/04/09 04:37:57;;;;;;;1.53;1.30;;;5.80;98.20;;;;;;4990782;28;20581;-77
2023/04/09 04:40:24;;;;;;;1.60;1.30;;;5.80;98.20;;;;;;5002543;28;20468;-76
2023/04/09 04:42:50;;;;;;;1.57;1.33;;;5.80;98.20;;;;;;4985618;28;20484;-76
2023/04/09 04:45:17;;;;;;;1.53;1.20;;;5.70;98.20;;;;;;5002832;28;20471;-80
2023/04/09 04:47:44;;;;;;;1.63;1.53;;;5.70;98.20;;;;;;5004057;28;20483;-81
2023/04/09 04:50:11;;;;;;;1.57;1.30;;;5.70;98.20;;;;;;5003315;28;20584;-77
2023/04/09 04:52:39;;;;;;;1.53;1.30;;;5.60;98.20;;;;;;4999178;28;20499;-78
2023/04/09 04:55:06;;;;;;;1.53;1.30;;;5.60;98.20;;;;;;5003102;28;20467;-78
2023/04/09 04:57:33;;;;;;;1.57;1.30;;;5.60;98.20;;;;;;4978313;28;20851;-79
2023/04/09 05:00:00;;;;;;;1.53;1.30;;;5.60;98.20;;;;;;5009438;28;20463;-78
2023/04/09 05:02:27;;;;;;;1.50;1.30;;;5.60;98.20;;;;;;4990761;28;20480;-74
2023/04/09 05:04:54;;;;;;;1.57;1.30;;;5.50;98.20;;;;;;5002254;28;20460;-77
2023/04/09 05:07:20;;;;;;;1.60;1.40;;;5.50;98.20;;;;;;4994107;28;21203;-75
2023/04/09 05:09:49;;;;;;;1.57;1.30;;;5.50;98.20;;;;;;5004630;28;20541;-77
2023/04/09 05:12:16;;;;;;;1.60;1.33;;;5.50;98.20;;;;;;4996826;28;21028;-75
2023/04/09 05:14:43;;;;;;;1.60;1.30;;;5.40;98.20;;;;;;5008638;28;20468;-77
2023/04/09 05:17:10;;;;;;;1.60;1.30;;;5.40;98.20;;;;;;4987858;28;20995;-77
2023/04/09 05:19:37;;;;;;;1.60;1.30;;;5.40;98.20;;;;;;4992049;28;21047;-76
2023/04/09 05:22:04;;;;;;;1.60;1.43;;;5.30;98.20;;;;;;4979386;28;20484;-75
2023/04/09 05:24:31;;;;;;;1.60;1.40;;;5.30;98.20;;;;;;4988169;28;20461;-76
2023/04/09 05:27:00;;;;;;;1.60;1.40;;;5.30;98.20;;;;;;4981063;28;20842;-78
2023/04/09 05:29:26;;;;;;;1.87;1.77;;;5.30;98.20;;;;;;4992037;28;20491;-76
2023/04/09 05:31:53;;;;;;;1.57;1.30;;;5.30;98.20;;;;;;4981877;28;20481;-76
2023/04/09 05:34:20;;;;;;;1.50;1.30;;;5.30;98.20;;;;;;4987240;28;20468;-76
2023/04/09 05:36:47;;;;;;;1.57;1.33;;;5.30;98.20;;;;;;4979079;28;20519;-75
2023/04/09 05:39:13;;;;;;;1.60;1.37;;;5.30;98.20;;;;;;4990368;28;20472;-76
2023/04/09 05:41:41;;;;;;;3.20;3.00;;;5.40;98.20;;;;;;4976803;28;20493;-75
2023/04/09 05:44:09;;;;;;;1.60;1.30;;;5.40;98.20;;;;;;4984374;28;20465;-77
2023/04/09 05:46:36;;;;;;;1.60;1.40;;;5.40;98.20;;;;;;4975416;28;20488;-76
2023/04/09 05:49:03;;;;;;;2.63;2.37;;;5.50;98.20;;;;;;4998213;28;20460;-81
2023/04/09 05:51:30;;;;;;;1.60;1.43;;;5.60;98.20;;;;;;4986882;28;20490;-76
2023/04/09 05:53:58;;;;;;;1.60;1.43;;;5.70;98.20;;;;;;5002152;28;20468;-78
2023/04/09 05:56:26;;;;;;;1.60;1.40;;;5.90;98.20;;;;;;4997101;28;20987;-82
2023/04/09 05:58:53;;;;;;;1.60;1.40;;;6.10;98.20;;;;;;4996979;28;20468;-77
2023/04/09 06:01:22;;;;;;;1.60;1.40;;;6.30;98.20;;;;;;4995518;28;20487;-76
2023/04/09 06:03:48;;;;;;;1.60;1.40;;;6.40;98.20;;;;;;5004398;28;20472;-77
2023/04/09 06:06:15;;;;;;;1.50;1.20;;;6.60;98.20;;;;;;4995785;28;20557;-76
2023/04/09 06:08:43;;;;;;;1.60;1.33;;;6.80;98.20;;;;;;4984210;28;20848;-77
2023/04/09 06:11:10;;;;;;;1.60;1.30;;;6.90;98.20;;;;;;4979033;28;20900;-77
2023/04/09 06:13:37;;;;;;;1.57;1.30;;;7.10;98.20;;;;;;4983973;28;20469;-75
2023/04/09 06:16:04;;;;;;;1.60;1.33;;;7.30;98.20;;;;;;4977116;28;20467;-75
2023/04/09 06:18:33;;;;;;;3.00;2.80;;;7.50;98.20;;;;;;4986228;28;20454;-77
2023/04/09 06:21:03;;;;;;;1.60;1.30;;;7.70;98.20;;;;;;4977802;28;20865;-74
2023/04/09 06:23:30;;;;;;;1.57;1.20;;;7.90;98.20;;;;;;4987348;28;20461;-74
2023/04/09 06:25:57;;;;;;;1.53;1.20;;;8.00;98.20;;;;;;4977781;28;20492;-74
2023/04/09 06:28:24;;;;;;;1.53;1.20;;;8.20;98.20;;;;;;4986010;28;20484;-74
2023/04/09 06:30:52;;;;;;;1.53;1.20;;;8.30;98.20;;;;;;4976967;28;20495;-74
2023/04/09 06:33:19;;;;;;;1.60;1.30;;;8.40;98.20;;;;;;4981844;28;20465;-74
2023/04/09 06:35:47;;;;;;;2.83;2.63;;;8.60;98.20;;;;;;4987299;28;20473;-74
2023/04/09 06:38:14;;;;;;;1.57;1.27;;;8.60;98.20;;;;;;4981461;28;20479;-74
2023/04/09 06:40:41;;;;;;;1.57;1.20;;;8.70;98.20;;;;;;5008168;28;20472;-74
2023/04/09 06:43:08;;;;;;;1.77;1.67;;;8.80;98.20;;;;;;4983625;28;21189;-74
2023/04/09 06:45:36;;;;;;;1.57;1.20;;;8.90;98.20;;;;;;5006681;28;20539;-74
2023/04/09 06:48:03;;;;;;;2.03;1.80;;;9.00;98.20;;;;;;4980099;28;20484;-75
2023/04/09 06:50:30;;;;;;;3.10;2.90;;;9.10;98.20;;;;;;5010591;28;20467;-74
2023/04/09 06:52:58;;;;;;;1.53;1.20;;;9.30;98.20;;;;;;4974840;28;20999;-73
2023/04/09 06:55:26;;;;;;;1.50;1.10;;;9.40;98.20;;;;;;5007180;28;20457;-74
2023/04/09 06:57:53;;;;;;;1.60;1.20;;;9.40;98.20;;;;;;4954363;28;20490;-74
2023/04/09 07:00:21;;;;;;;1.60;1.20;;;9.60;98.20;;;;;;4981901;28;20465;-74
2023/04/09 07:02:48;;;;;;;1.50;1.10;;;9.80;98.20;;;;;;4956037;28;20917;-74
2023/04/09 07:05:15;;;;;;;1.93;1.80;;;10.00;98.20;;;;;;4990511;28;20468;-74
2023/04/09 07:07:42;;;;;;;1.50;1.10;;;10.10;98.20;;;;;;4967672;28;20500;-74
2023/04/09 07:10:10;;;;;;;1.60;1.20;;;10.20;98.20;;;;;;4981930;28;20461;-74
2023/04/09 07:12:37;;;;;;;1.57;1.20;;;10.30;98.20;;;;;;4988421;28;20487;-74
2023/04/09 07:15:06;;;;;;;1.57;1.13;;;10.50;98.20;;;;;;5003844;28;20467;-74
2023/04/09 07:17:33;;;;;;;1.60;1.20;;;10.50;98.20;;;;;;4982722;28;20520;-74
2023/04/09 07:20:00;;;;;;;1.53;1.20;;;10.70;98.20;;;;;;5002092;28;20570;-74
2023/04/09 07:22:28;;;;;;;1.50;1.07;;;10.70;98.20;;;;;;4991469;28;20495;-75
2023/04/09 07:24:55;;;;;;;1.57;1.10;;;10.80;98.20;;;;;;5002567;28;20456;-74
2023/04/09 07:27:25;;;;;;;1.53;1.00;;;11.00;98.20;;;;;;4989765;28;20484;-76
2023/04/09 07:29:54;;;;;;;1.60;1.13;;;11.10;98.20;;;;;;5000970;28;20750;-75
2023/04/09 07:32:20;;;;;;;1.57;1.10;;;11.30;98.20;;;;;;4974147;28;20484;-74
2023/04/09 07:34:47;;;;;;;3.00;2.80;;;11.40;98.20;;;;;;4999898;28;20460;-75
2023/04/09 07:37:14;;;;;;;1.60;1.30;;;11.40;98.20;;;;;;4989108;28;20480;-75
2023/04/09 07:39:41;;;;;;;2.23;2.03;;;11.50;98.20;;;;;;5003611;28;20455;-76
2023/04/09 07:42:08;;;;;;;1.50;1.17;;;11.50;98.20;;;;;;4989173;28;21029;-76
2023/04/09 07:44:37;;;;;;;1.50;1.10;;;11.60;98.20;;;;;;5001880;28;20471;-78
2023/04/09 07:47:05;;;;;;;1.50;1.00;;;11.60;98.20;;;;;;4991042;28;20614;-76
2023/04/09 07:49:31;;;;;;;1.53;1.10;;;11.80;98.20;;;;;;5002715;28;20715;-73
2023/04/09 07:51:59;;;;;;;1.60;1.10;;;11.90;98.20;;;;;;4987509;28;20487;-76
2023/04/09 07:54:27;;;;;;;2.17;1.93;;;12.00;98.20;;;;;;4999320;28;20452;-76
2023/04/09 07:56:55;;;;;;;1.50;1.10;;;12.20;97.70;;;;;;4989741;28;20574;-76
2023/04/09 07:59:22;;;;;;;1.60;1.10;;;12.40;97.50;;;;;;5002873;28;20518;-76
2023/04/09 08:01:50;;;;;;;1.53;1.10;;;12.60;97.00;;;;;;4987669;28;20518;-76
2023/04/09 08:04:17;;;;;;;1.50;1.00;;;12.80;95.70;;;;;;4998501;28;20726;-76
2023/04/09 08:06:46;;;;;;;1.67;1.30;;;12.90;95.90;;;;;;4991462;28;20496;-76
2023/04/09 08:09:13;;;;;;;1.50;0.97;;;13.00;95.10;;;;;;5002164;28;20460;-73
2023/04/09 08:11:40;;;;;;;1.50;1.00;;;13.20;95.10;;;;;;4985313;28;20496;-74
2023/04/09 08:14:11;;;;;;;1.50;1.00;;;13.30;95.00;;;;;;4992802;28;20460;-74
2023/04/09 08:16:39;;;;;;;1.57;1.10;;;13.40;94.20;;;;;;4985900;28;20485;-74
2023/04/09 08:19:07;;;;;;;4.00;3.73;;;13.40;93.30;;;;;;4991429;28;20464;-73
2023/04/09 08:21:34;;;;;;;1.50;1.07;;;13.40;93.40;;;;;;4986541;28;20494;-74
2023/04/09 08:24:03;;;;;;;1.50;1.00;;;13.60;94.30;;;;;;4990863;28;20478;-75
2023/04/09 08:26:30;;;;;;;1.50;1.10;;;13.80;93.60;;;;;;4988371;28;21173;-75
2023/04/09 08:28:57;;;;;;;1.60;1.30;;;14.00;93.20;;;;;;4988843;28;20514;-75
2023/04/09 08:31:24;;;;;;;1.50;1.10;;;14.20;94.10;;;;;;4981230;28;20497;-75
2023/04/09 08:33:52;;;;;;;1.80;1.20;;;14.40;91.30;;;;;;4987105;28;20471;-75
2023/04/09 08:36:20;;;;;;;1.87;1.43;;;14.50;90.40;;;;;;4995430;28;20491;-75
2023/04/09 08:38:47;;;;;;;1.50;1.00;;;14.70;91.20;;;;;;5000122;28;20468;-75
2023/04/09 08:41:18;;;;;;;1.53;1.00;;;14.80;88.70;;;;;;4990953;28;20576;-75
2023/04/09 08:43:47;;;;;;;1.50;1.00;;;14.90;89.00;;;;;;4992184;28;20525;-75
2023/04/09 08:46:15;;;;;;;1.50;1.00;;;15.10;88.40;;;;;;4990714;28;20535;-76
2023/04/09 08:48:43;;;;;;;1.50;1.00;;;15.30;88.30;;;;;;4993420;28;20532;-75
2023/04/09 08:51:13;;;;;;;1.50;1.00;;;15.60;86.70;;;;;;4971016;28;20490;-74
2023/04/09 08:53:44;;;;;;;1.57;0.93;;;15.70;86.00;;;;;;4984153;28;20470;-75
2023/04/09 08:56:12;;;;;;;1.50;1.00;;;15.80;85.70;;;;;;4974206;28;20526;-75
2023/04/09 08:58:42;;;;;;;1.50;0.97;;;15.90;86.00;;;;;;4992638;28;20987;-75
2023/04/09 09:01:22;;;;;;;1.53;1.00;;;16.10;85.30;;;;;;4973145;28;20595;-76
2023/04/09 09:03:55;;;;;;;1.50;1.00;;;16.30;85.40;;;;;;4978244;28;20916;-75
2023/04/09 09:06:23;;;;;;;1.50;1.00;;;16.40;83.00;;;;;;4972666;28;20476;-75
2023/04/09 09:09:03;;;;;;;3.93;3.43;;;16.60;83.30;;;;;;4988248;28;20472;-75
2023/04/09 09:11:30;;;;;;;1.50;0.90;;;16.70;81.70;;;;;;4970853;28;20480;-75
2023/04/09 09:13:58;;;;;;;1.70;1.40;;;16.70;82.10;;;;;;4977732;28;20475;-75
2023/04/09 09:16:26;;;;;;;1.50;0.90;;;16.80;81.10;;;;;;4973041;28;20484;-75
2023/04/09 09:18:54;;;;;;;1.50;0.90;;;16.70;79.60;;;;;;4988368;28;20500;-75
2023/04/09 09:21:21;;;;;;;1.50;0.90;;;16.50;79.10;;;;;;4968574;28;20485;-75
2023/04/09 09:23:49;;;;;;;1.50;0.90;;;16.50;80.40;;;;;;4990634;28;20865;-76
2023/04/09 09:26:19;;;;;;;1.50;1.00;;;16.60;81.60;;;;;;4973004;28;20475;-75
2023/04/09 09:28:48;;;;;;;1.50;0.90;;;16.70;78.90;;;;;;4986400;28;20513;-75
2023/04/09 09:31:16;;;;;;;1.50;1.00;;;16.60;78.90;;;;;;4973770;28;20480;-75
2023/04/09 09:33:43;;;;;;;1.70;1.50;;;16.70;78.00;;;;;;4992488;28;20488;-75
2023/04/09 09:36:10;;;;;;;1.50;0.90;;;16.60;79.90;;;;;;4979362;28;20488;-75
2023/04/09 09:38:53;;;;;;;1.50;1.00;;;16.70;78.60;;;;;;4990261;28;20547;-75
2023/04/09 09:41:21;;;;;;;1.50;0.90;;;16.60;76.10;;;;;;4982131;28;20492;-74
2023/04/09 09:43:48;;;;;;;1.50;1.00;;;16.40;76.60;;;;;;4992331;28;20472;-75
2023/04/09 09:46:16;;;;;;;1.50;0.90;;;16.20;76.60;;;;;;4973939;28;20482;-74
2023/04/09 09:48:43;;;;;;;1.47;0.90;;;16.20;78.60;;;;;;4989724;28;20843;-74
2023/04/09 09:51:12;;;;;;;1.50;0.90;;;16.40;78.10;;;;;;4974589;28;20551;-73
2023/04/09 09:53:39;;;;;;;1.50;0.90;;;16.70;77.30;;;;;;4983717;28;20480;-75
2023/04/09 09:56:11;;;;;;;1.50;0.90;;;16.80;75.10;;;;;;4978413;28;20479;-74
2023/04/09 09:58:45;;;;;;;1.50;0.90;;;16.90;75.20;;;;;;4992075;28;20493;-74
2023/04/09 10:01:14;;;;;;;1.60;1.33;;;17.00;74.70;;;;;;4975740;28;20516;-74
2023/04/09 10:03:44;;;;;;;1.50;0.90;;;17.00;74.00;;;;;;5005605;28;20555;-74
2023/04/09 10:06:11;;;;;;;1.60;1.40;;;17.00;74.20;;;;;;4990409;28;20559;-74
2023/04/09 10:08:42;;;;;;;2.33;2.13;;;16.90;76.00;;;;;;5002924;28;20487;-74
2023/04/09 10:11:09;;;;;;;1.47;0.90;;;16.90;75.80;;;;;;4990360;28;20485;-74
2023/04/09 10:13:41;;;;;;;1.50;1.00;;;16.90;75.80;;;;;;4991080;28;20488;-74
2023/04/09 10:16:10;;;;;;;1.50;1.10;;;17.00;75.50;;;;;;4993893;28;20495;-74
2023/04/09 10:18:37;;;;;;;1.50;0.97;;;17.20;73.90;;;;;;5007315;28;20543;-75
2023/04/09 10:21:12;;;;;;;1.47;0.90;;;17.00;74.60;;;;;;4994031;28;20489;-74
2023/04/09 10:23:40;;;;;;;1.50;0.90;;;17.20;74.90;;;;;;4991001;28;20967;-74
2023/04/09 10:26:09;;;;;;;1.50;0.90;;;17.30;74.20;;;;;;4973139;28;20489;-74
2023/04/09 10:28:38;;;;;;;1.50;0.97;;;17.50;74.80;;;;;;4993199;28;20581;-74
2023/04/09 10:31:07;;;;;;;1.50;1.10;;;17.60;73.50;;;;;;4979322;28;21458;-74
2023/04/09 10:33:36;;;;;;;1.50;0.90;;;17.60;74.20;;;;;;4989902;28;20489;-74
2023/04/09 10:36:05;;;;;;;1.50;0.90;;;17.30;73.20;;;;;;4979347;28;20531;-74
2023/04/09 10:38:37;;;;;;;1.50;1.00;;;16.90;73.80;;;;;;4979693;28;20493;-74
2023/04/09 10:41:15;;;;;;;1.50;0.90;;;16.70;74.30;;;;;;4975284;28;20475;-75
2023/04/09 10:43:43;;;;;;;1.50;1.00;;;16.40;74.50;;;;;;4984277;28;20489;-74
2023/04/09 10:46:27;;;;;;;1.50;0.90;;;16.20;75.90;;;;;;4979431;28;20491;-75
2023/04/09 10:49:12;;;;;;;1.50;1.00;;;16.00;75.90;;;;;;4984800;28;20516;-75
2023/04/09 10:51:40;;;;;;;1.50;0.90;;;16.20;75.80;;;;;;4973455;28;20493;-76
2023/04/09 10:54:27;;;;;;;1.50;0.90;;;16.40;75.40;;;;;;4985653;28;20457;-75
2023/04/09 10:57:16;;;;;;;1.50;0.93;;;16.60;75.00;;;;;;4977042;28;20480;-75
2023/04/09 10:59:45;;;;;;;1.50;0.90;;;17.20;75.10;;;;;;4997345;28;20465;-75
2023/04/09 11:02:54;;;;;;;1.50;0.90;;;17.80;77.20;;;;;;4979053;28;20473;-76
2023/04/09 11:05:32;;;;;;;1.50;1.00;;;18.10;72.40;;;;;;4987397;28;20915;-74
2023/04/09 11:08:05;;;;;;;1.47;0.90;;;17.70;73.40;;;;;;4969251;28;20599;-75
2023/04/09 11:10:33;;;;;;;1.50;0.90;;;17.60;73.20;;;;;;4985364;28;20465;-74
2023/04/09 11:13:01;;;;;;;1.50;0.90;;;17.60;73.50;;;;;;4970316;28;21063;-75
2023/04/09 11:15:28;;;;;;;1.70;1.30;;;17.60;74.50;;;;;;4985793;28;20568;-76
2023/04/09 11:17:57;;;;;;;1.43;0.90;;;17.80;75.10;;;;;;4979675;28;20489;-75
2023/04/09 11:20:25;;;;;;;1.47;0.90;;;18.00;73.90;;;;;;4986181;28;20847;-75
2023/04/09 11:22:54;;;;;;;1.47;0.90;;;18.00;72.10;;;;;;4979310;28;20485;-74
2023/04/09 11:25:22;;;;;;;1.47;0.90;;;17.70;72.50;;;;;;4983924;28;20524;-74
2023/04/09 11:27:49;;;;;;;1.50;0.90;;;17.40;72.60;;;;;;4969475;28;21014;-75
2023/04/09 11:30:16;;;;;;;1.50;0.90;;;16.90;73.70;;;;;;4986094;28;20780;-75
2023/04/09 11:32:44;;;;;;;1.50;0.90;;;16.40;74.00;;;;;;4968059;28;20486;-74
2023/04/09 11:35:14;;;;;;;1.50;0.90;;;16.20;75.90;;;;;;4987169;28;20465;-75
2023/04/09 11:37:42;;;;;;;1.50;0.90;;;16.20;75.90;;;;;;4984578;28;20480;-74
2023/04/09 11:40:18;;;;;;;1.47;0.90;;;16.10;75.80;;;;;;5004926;28;20479;-75
2023/04/09 11:42:47;;;;;;;1.87;1.77;;;16.10;76.30;;;;;;4970581;28;20547;-75
2023/04/09 11:45:16;;;;;;;1.50;1.10;;;16.20;77.90;;;;;;5001673;28;20478;-75
2023/04/09 11:47:45;;;;;;;1.40;0.90;;;16.70;79.10;;;;;;4982298;28;20865;-76
2023/04/09 11:50:15;;;;;;;1.50;1.03;;;17.10;75.10;;;;;;5000905;28;20473;-77
2023/04/09 11:52:42;;;;;;;1.50;0.97;;;17.20;74.60;;;;;;4990669;28;20558;-76
2023/04/09 11:55:10;;;;;;;1.47;0.90;;;17.60;73.60;;;;;;5002922;28;20464;-75
2023/04/09 11:57:43;;;;;;;1.47;0.90;;;17.90;73.70;;;;;;4973835;28;20944;-75
2023/04/09 12:00:13;;;;;;;1.50;0.90;;;18.20;71.80;;;;;;5001485;28;20821;-75
2023/04/09 12:02:45;;;;;;;1.47;0.90;;;18.30;72.80;;;;;;4988483;28;20484;-75
2023/04/09 12:05:21;;;;;;;1.43;0.90;;;18.40;72.60;;;;;;5002975;28;20464;-74
2023/04/09 12:07:48;;;;;;;1.50;1.00;;;18.10;73.10;;;;;;4970764;28;20579;-75
2023/04/09 12:10:15;;;;;;;1.57;1.30;;;18.00;72.90;;;;;;5004933;28;20731;-75
2023/04/09 12:12:44;;;;;;;1.60;0.90;;;17.90;72.60;;;;;;4970064;28;20976;-74
2023/04/09 12:15:18;;;;;;;1.50;0.93;;;17.80;73.20;;;;;;5001762;28;20467;-74
2023/04/09 12:17:48;;;;;;;1.50;0.90;;;17.80;73.90;;;;;;4970613;28;20861;-73
2023/04/09 12:20:26;;;;;;;1.43;0.90;;;18.20;73.40;;;;;;5000756;28;20460;-74
2023/04/09 12:22:54;;;;;;;1.50;0.90;;;18.30;70.40;;;;;;4984782;28;20503;-74
2023/04/09 12:25:21;;;;;;;1.50;0.90;;;18.20;71.30;;;;;;5005985;28;20464;-75
2023/04/09 12:27:48;;;;;;;1.47;0.90;;;18.00;71.50;;;;;;4976896;28;21008;-74
2023/04/09 12:30:15;;;;;;;1.50;1.00;;;17.60;71.90;;;;;;4999692;28;20460;-74
2023/04/09 12:32:43;;;;;;;1.50;1.00;;;17.40;71.90;;;;;;4972306;28;20925;-74
2023/04/09 12:35:10;;;;;;;1.50;0.90;;;17.30;73.20;;;;;;5000642;28;20796;-74
2023/04/09 12:37:39;;;;;;;1.87;1.67;;;17.20;72.80;;;;;;4981612;28;21011;-74
2023/04/09 12:40:07;;;;;;;1.47;0.90;;;16.90;73.50;;;;;;4998443;28;20467;-74
2023/04/09 12:42:34;;;;;;;1.70;1.40;;;16.70;72.90;;;;;;4991602;28;20491;-74
2023/04/09 12:45:01;;;;;;;1.83;1.20;;;16.60;74.80;;;;;;5003254;28;20476;-74
2023/04/09 12:47:31;;;;;;;1.50;1.00;;;16.40;74.70;;;;;;4989640;28;20476;-75
2023/04/09 12:49:57;;;;;;;1.47;0.90;;;16.30;74.70;;;;;;4982058;28;20877;-74
2023/04/09 12:52:24;;;;;;;1.47;0.90;;;16.30;75.60;;;;;;4966968;28;20855;-75
2023/04/09 12:54:53;;;;;;;1.50;0.90;;;16.30;75.80;;;;;;4980398;28;20469;-75
2023/04/09 12:57:19;;;;;;;2.00;1.57;;;16.30;75.00;;;;;;4974495;28;20481;-75
2023/04/09 12:59:46;;;;;;;1.50;1.00;;;16.20;75.10;;;;;;4977932;28;20858;-75